Darstellungsparameter: Aktuell verwendete Einstellungen:
Skalierung der Graphiken ... ?
xyx+y,   Skalierungsfaktor:      Skalierung: Modus: x, Faktor: 1
Darstellungszeitraum ... ?
Vom - - bis: - -   Zeitraum: 02.03.2021 - 02.03.2021
Min/Max/Avg-Anzeige ... ?
Zeige MMA aktuell
Zeige MMA Monat
Zeige MMA alles
Zeige --A aktuell
Zeige --A Monat
Zeige --A alles
Keine MMA-Anzeige
MMA:
Average (ber die Originaldaten)
MMA-Basis: 02.03.2021 - 02.03.2021
Quicknavigation für Darstellung... ?
Tage:      1T, 2T, 3T, 5T -1T -2T -3T -5T +1T +2T +3T +5T
Wochen: 1W, 2W, 3W -1W -2W -3W +1W +2W +3W
Monate: 1M, 3M, 6M -1M -3M -6M +1M +3M +6M
Jahre:    1J, 3J, 5J, 10J -1J -3J -5J -10J +1J +3J +5J +10J
Nutze für die Darstellung ... ?
Originaldaten oder Mittelwerte auf ...
Stundenbasis Tagesbasis Wochenbasis
Monatsbasis Jahresbasis      Datenbasis: Original-Daten
Darstellen als:
Statistik (Auto) Statistik J:M      Darstellung:

Der gewünschte Datumsbereich war nicht gültig/verfügbar und wurde korrigiert....
Das angegebene Enddatum (31.03.2023 23:59:59) liegt in der Zukunft.
Das angegebene Startdatum (03.03.2023 00:00:00) liegt in der Zukunft.


Zur Graphik,    zurück zur Übersicht aller Sensoren.
 
Tabellarische Datenbersicht: ?
 
Sensor: Nr:Datum:Temp:Feuchte:
Aussen-T/F 1 02-03-2021 01:00:17 0.9 C 50 %
2 02-03-2021 01:10:17 0.9 C 50 %
3 02-03-2021 01:20:17 0.8 C 50 %
4 02-03-2021 01:30:17 0.7 C 50 %
5 02-03-2021 01:40:17 0.4 C 49 %
6 02-03-2021 01:50:18 0.4 C 50 %
7 02-03-2021 02:00:18 0.3 C 50 %
8 02-03-2021 02:10:18 0.3 C 50 %
9 02-03-2021 02:20:18 0 C 50 %
10 02-03-2021 02:30:17 0 C 50 %
11 02-03-2021 02:40:17 -0.4 C 50 %
12 02-03-2021 02:50:17 -0.3 C 50 %
13 02-03-2021 03:00:17 -0.2 C 50 %
14 02-03-2021 03:10:17 -0.4 C 50 %
15 02-03-2021 03:20:17 -0.6 C 50 %
16 02-03-2021 03:30:17 -0.5 C 50 %
17 02-03-2021 03:40:17 -0.6 C 50 %
18 02-03-2021 03:50:17 -0.6 C 50 %
19 02-03-2021 04:00:17 -0.7 C 50 %
20 02-03-2021 04:10:18 -0.8 C 50 %
21 02-03-2021 04:20:17 -0.8 C 50 %
22 02-03-2021 04:30:18 -1.1 C 50 %
23 02-03-2021 04:40:18 -1.2 C 50 %
24 02-03-2021 04:50:17 -1 C 50 %
25 02-03-2021 05:00:18 -0.9 C 50 %
Sensor: Nr:Datum:Temp:Feuchte:
Aussen-T/F 26 02-03-2021 05:10:18 -1.2 C 50 %
27 02-03-2021 05:20:17 -1 C 50 %
28 02-03-2021 05:30:18 -1.1 C 50 %
29 02-03-2021 05:40:18 -1.1 C 50 %
30 02-03-2021 05:50:17 -1.4 C 50 %
31 02-03-2021 06:00:17 -1.4 C 50 %
32 02-03-2021 06:10:17 -1.4 C 50 %
33 02-03-2021 06:20:17 -1.4 C 50 %
34 02-03-2021 06:30:18 -1.5 C 50 %
35 02-03-2021 06:40:18 -1.4 C 50 %
36 02-03-2021 06:50:18 -1.1 C 50 %
37 02-03-2021 07:00:18 -1.2 C 50 %
38 02-03-2021 07:10:18 -1.3 C 50 %
39 02-03-2021 07:20:18 -1.6 C 50 %
40 02-03-2021 07:30:17 -1.8 C 50 %
41 02-03-2021 07:40:17 -1.6 C 50 %
42 02-03-2021 07:50:17 -1.8 C 50 %
43 02-03-2021 08:00:17 -1.7 C 50 %
44 02-03-2021 08:10:17 -1.5 C 50 %
45 02-03-2021 08:20:17 -1.4 C 50 %
46 02-03-2021 08:30:17 -1.1 C 50 %
47 02-03-2021 08:40:17 -1.2 C 50 %
48 02-03-2021 08:50:17 -1.2 C 50 %
49 02-03-2021 09:00:17 -1 C 50 %
50 02-03-2021 09:10:17 -0.9 C 50 %
Sensor: Nr:Datum:Temp:Feuchte:
Aussen-T/F 51 02-03-2021 09:20:17 -0.9 C 50 %
52 02-03-2021 09:30:17 -0.5 C 50 %
53 02-03-2021 09:40:17 -0.1 C 50 %
54 02-03-2021 09:50:17 0.1 C 50 %
55 02-03-2021 10:00:17 0.5 C 50 %
56 02-03-2021 10:10:17 0.7 C 50 %
57 02-03-2021 10:20:17 1.5 C 49 %
58 02-03-2021 10:30:17 2.3 C 48 %
59 02-03-2021 10:40:17 3.6 C 47 %
60 02-03-2021 10:50:17 4.1 C 46 %
61 02-03-2021 11:00:17 4.6 C 46 %
62 02-03-2021 11:10:17 5.2 C 45 %
63 02-03-2021 11:20:17 7.2 C 40 %
64 02-03-2021 11:30:17 8.7 C 37 %
65 02-03-2021 11:40:18 8.8 C 36 %
66 02-03-2021 11:50:17 7.8 C 37 %
67 02-03-2021 12:00:17 10 C 35 %
68 02-03-2021 12:10:17 10.8 C 34 %
69 02-03-2021 12:20:17 12.2 C 32 %
70 02-03-2021 12:30:17 10.7 C 34 %
71 02-03-2021 12:40:17 11.9 C 33 %
72 02-03-2021 12:50:17 12.9 C 31 %
73 02-03-2021 13:00:17 16.5 C 27 %
74 02-03-2021 13:10:17 14.8 C 29 %
75 02-03-2021 13:20:17 16.2 C 27 %
Sensor: Nr:Datum:Temp:Feuchte:
Aussen-T/F 76 02-03-2021 13:30:17 15.4 C 27 %
77 02-03-2021 13:40:17 17.2 C 26 %
78 02-03-2021 13:50:17 17.5 C 25 %
79 02-03-2021 14:00:18 17 C 25 %
80 02-03-2021 14:10:18 14.5 C 27 %
81 02-03-2021 14:20:18 14.7 C 27 %
82 02-03-2021 14:30:17 14.7 C 26 %
83 02-03-2021 14:40:17 15.3 C 26 %
84 02-03-2021 14:50:17 16 C 25 %
85 02-03-2021 15:00:17 16.4 C 25 %
86 02-03-2021 15:10:17 16 C 25 %
87 02-03-2021 15:20:18 17.1 C 25 %
88 02-03-2021 15:30:17 18.4 C 23 %
89 02-03-2021 15:40:18 19.1 C 22 %
90 02-03-2021 15:50:17 20.2 C 21 %
91 02-03-2021 16:00:17 22.8 C 20 %
92 02-03-2021 16:10:17 21.6 C 20 %
93 02-03-2021 16:20:17 19.4 C 20 %
94 02-03-2021 16:30:17 19.9 C 21 %
95 02-03-2021 16:40:17 17.2 C 23 %
96 02-03-2021 16:50:17 18.3 C 21 %
97 02-03-2021 17:00:18 16.6 C 24 %
98 02-03-2021 17:10:18 16 C 24 %
99 02-03-2021 17:20:17 13.7 C 27 %
100 02-03-2021 17:30:18 13 C 28 %
Sensor: Nr:Datum:Temp:Feuchte:
Aussen-T/F 101 02-03-2021 17:40:18 12.3 C 29 %
102 02-03-2021 17:50:17 11.7 C 30 %
103 02-03-2021 18:00:17 10.8 C 31 %
104 02-03-2021 18:10:17 10.3 C 32 %
105 02-03-2021 18:20:17 10.6 C 32 %
106 02-03-2021 18:30:17 10.4 C 31 %
107 02-03-2021 18:40:17 9.5 C 33 %
108 02-03-2021 18:50:17 9.3 C 33 %
109 02-03-2021 19:00:18 8.5 C 35 %
110 02-03-2021 19:10:18 8.4 C 35 %
111 02-03-2021 19:20:17 8.2 C 35 %
112 02-03-2021 19:30:18 8.3 C 35 %
113 02-03-2021 19:40:18 7.5 C 36 %
114 02-03-2021 19:50:17 7.9 C 36 %
115 02-03-2021 20:00:17 7.8 C 36 %
116 02-03-2021 20:10:18 7.3 C 36 %
Sensor: Nr:Datum:Temp:Feuchte:
G-T/H 1 02-03-2021 01:00:17 8.2 C 73 %
2 02-03-2021 01:10:17 8.1 C 73 %
3 02-03-2021 01:20:17 8.1 C 73 %
4 02-03-2021 01:30:17 8.1 C 73 %
5 02-03-2021 01:40:17 8.1 C 73 %
6 02-03-2021 01:50:18 8.1 C 73 %
7 02-03-2021 02:00:18 8.1 C 73 %
8 02-03-2021 02:10:18 8.1 C 73 %
9 02-03-2021 02:20:18 8.1 C 73 %
10 02-03-2021 02:30:17 8 C 73 %
11 02-03-2021 02:40:17 8 C 73 %
12 02-03-2021 02:50:17 8.1 C 73 %
13 02-03-2021 03:00:17 8 C 73 %
14 02-03-2021 03:10:17 8.1 C 73 %
15 02-03-2021 03:20:17 8 C 73 %
16 02-03-2021 03:30:17 8 C 73 %
17 02-03-2021 03:40:17 8 C 73 %
18 02-03-2021 03:50:17 8 C 73 %
19 02-03-2021 04:00:17 8 C 73 %
20 02-03-2021 04:10:18 8 C 73 %
21 02-03-2021 04:20:17 7.9 C 74 %
22 02-03-2021 04:30:18 7.9 C 74 %
23 02-03-2021 04:40:18 7.9 C 74 %
24 02-03-2021 04:50:17 7.9 C 74 %
25 02-03-2021 05:00:18 7.9 C 74 %
Sensor: Nr:Datum:Temp:Feuchte:
G-T/H 26 02-03-2021 05:10:18 7.9 C 73 %
27 02-03-2021 05:20:17 7.9 C 73 %
28 02-03-2021 05:30:18 7.9 C 73 %
29 02-03-2021 05:40:18 7.8 C 73 %
30 02-03-2021 05:50:17 7.8 C 73 %
31 02-03-2021 06:00:17 7.8 C 73 %
32 02-03-2021 06:10:17 7.8 C 73 %
33 02-03-2021 06:20:17 7.8 C 73 %
34 02-03-2021 06:30:18 7.8 C 73 %
35 02-03-2021 06:40:18 7.8 C 73 %
36 02-03-2021 06:50:18 7.8 C 73 %
37 02-03-2021 07:00:18 7.7 C 73 %
38 02-03-2021 07:10:18 7.7 C 73 %
39 02-03-2021 07:20:18 7.7 C 73 %
40 02-03-2021 07:30:17 7.7 C 73 %
41 02-03-2021 07:40:17 7.7 C 73 %
42 02-03-2021 07:50:17 7.7 C 73 %
43 02-03-2021 08:00:17 7.6 C 73 %
44 02-03-2021 08:10:17 7.6 C 73 %
45 02-03-2021 08:20:17 7.6 C 73 %
46 02-03-2021 08:30:17 7.6 C 73 %
47 02-03-2021 08:40:17 7.6 C 73 %
48 02-03-2021 08:50:17 7.6 C 73 %
49 02-03-2021 09:00:17 7.6 C 73 %
50 02-03-2021 09:10:17 7.6 C 73 %
Sensor: Nr:Datum:Temp:Feuchte:
G-T/H 51 02-03-2021 09:20:17 7.6 C 73 %
52 02-03-2021 09:30:17 7.5 C 73 %
53 02-03-2021 09:40:17 7.5 C 73 %
54 02-03-2021 09:50:17 7.5 C 73 %
55 02-03-2021 10:00:17 7.5 C 73 %
56 02-03-2021 10:10:17 7.5 C 73 %
57 02-03-2021 10:20:17 7.5 C 73 %
58 02-03-2021 10:30:17 7.5 C 73 %
59 02-03-2021 10:40:17 7.5 C 73 %
60 02-03-2021 10:50:17 7.5 C 73 %
61 02-03-2021 11:00:17 7.5 C 73 %
62 02-03-2021 11:10:17 7.5 C 73 %
63 02-03-2021 11:20:17 7.5 C 73 %
64 02-03-2021 11:30:17 7.5 C 73 %
65 02-03-2021 11:40:18 7.5 C 73 %
66 02-03-2021 11:50:17 7.5 C 73 %
67 02-03-2021 12:00:17 7.4 C 73 %
68 02-03-2021 12:10:17 7.5 C 73 %
69 02-03-2021 12:20:17 7.5 C 73 %
70 02-03-2021 12:30:17 7.5 C 73 %
71 02-03-2021 12:40:17 7.5 C 73 %
72 02-03-2021 12:50:17 7.5 C 73 %
73 02-03-2021 13:00:17 7.5 C 73 %
74 02-03-2021 13:10:17 7.5 C 74 %
75 02-03-2021 13:20:17 7.6 C 74 %
Sensor: Nr:Datum:Temp:Feuchte:
G-T/H 76 02-03-2021 13:30:17 7.5 C 74 %
77 02-03-2021 13:40:17 7.6 C 74 %
78 02-03-2021 13:50:17 7.6 C 74 %
79 02-03-2021 14:00:18 7.6 C 74 %
80 02-03-2021 14:10:18 7.6 C 74 %
81 02-03-2021 14:20:18 7.6 C 74 %
82 02-03-2021 14:30:17 7.7 C 74 %
83 02-03-2021 14:40:17 7.7 C 74 %
84 02-03-2021 14:50:17 7.7 C 74 %
85 02-03-2021 15:00:17 7.7 C 74 %
86 02-03-2021 15:10:17 7.7 C 74 %
87 02-03-2021 15:20:18 7.8 C 74 %
88 02-03-2021 15:30:17 7.8 C 74 %
89 02-03-2021 15:40:18 7.8 C 74 %
90 02-03-2021 15:50:17 7.8 C 74 %
91 02-03-2021 16:00:17 7.8 C 74 %
92 02-03-2021 16:10:17 7.8 C 74 %
93 02-03-2021 16:20:17 7.9 C 74 %
94 02-03-2021 16:30:17 7.9 C 75 %
95 02-03-2021 16:40:17 7.9 C 75 %
96 02-03-2021 16:50:17 7.9 C 75 %
97 02-03-2021 17:00:18 8 C 74 %
98 02-03-2021 17:10:18 8 C 74 %
99 02-03-2021 17:20:17 8 C 74 %
100 02-03-2021 17:30:18 8.1 C 74 %
Sensor: Nr:Datum:Temp:Feuchte:
G-T/H 101 02-03-2021 17:40:18 8.1 C 73 %
102 02-03-2021 17:50:17 8.1 C 73 %
103 02-03-2021 18:00:17 8.1 C 73 %
104 02-03-2021 18:10:17 8.1 C 73 %
105 02-03-2021 18:20:17 8.1 C 73 %
106 02-03-2021 18:30:17 8.1 C 73 %
107 02-03-2021 18:40:17 8.1 C 74 %
108 02-03-2021 18:50:17 8.1 C 74 %
109 02-03-2021 19:00:18 8.1 C 74 %
110 02-03-2021 19:10:18 8.1 C 74 %
111 02-03-2021 19:20:17 8.1 C 74 %
112 02-03-2021 19:30:18 8.1 C 74 %
113 02-03-2021 19:40:18 8.2 C 74 %
114 02-03-2021 19:50:17 8.2 C 74 %
115 02-03-2021 20:00:17 8.2 C 74 %
116 02-03-2021 20:10:18 8.1 C 74 %

Legende:
   Min
   Max


Maximal/Minimal-Werte vom 02.03.2021 - 02.03.2021

Sensor Min Max Avg
Temp
(Aussen-T/F)
-1.8 °C
02-03-2021  07:30:17
22.8 °C
02-03-2021  16:00:17
6.1 °C
Feuchte
(Aussen-T/F)
20 %
02-03-2021  16:00:17
50 %
02-03-2021  01:00:17
40.09 %
Temp
(G-T/H)
7.4 °C
02-03-2021  12:00:17
8.2 °C
02-03-2021  01:00:17
7.81 °C
Feuchte
(G-T/H)
73 %
02-03-2021  01:00:17
75 %
02-03-2021  16:30:17
73.39 %

Die Daten stammen von einer Davis Vantage Pro 2 Wetter-Station und werden unter Linux mit der Software wview2wettercgi und aufbereitet. Alle Angaben erfolgen ohne Gewähr für ihre Vollständigkeit oder Richtigkeit.
Kontakt: Rainer Krienke krienke@uni-koblenz.de . Meine Webseiten an der Uni Koblenz oder privat.
Version: $Revision: 0.78 $